Shaniko, Oregon
Current Conditions -  °F | °C
As of 2:53 PM on Tuesday 25 Nov 2014 (Local Time) from KDLS Reporting Station
Overcast Overcast  
Wind Chill: 60°   Ceiling: 4100
Heat Index: 60°   Visibility: 10mi
Dew Point: 52°   Wind: 14mph
Humidity: 75%   Direction: 330°NNW
Pressure: 30.21"   Gusts: 25mph
Location:  45°N, 120.75°W
Report Text: KDLS 252253Z AUTO 33012G22KT 10SM OVC041 16/11 A3021 RMK AO2 RAB14E24 SLP231 P0000 T01560111
Loading
Personal Weather Stations






























Interactive Weather Map New forecast layout! Learn more

10-Day Weather Forecast

Advertisements
Track Severe Weather on mobile